Zealand Delilah — PBZI — position and weather

sailwx.info

Track history (hours):
 
Tides and Currents Weather Stations Pressure Air Temp Water Temp Dewpoint Dewpoint Depression Visibility Wind Speed Wind Dir Waves Ship Positions

Zealand Delilah

Last reported at 2017-Aug-21 12:48 UTC. Time now 2017-Aug-22 13:09 UTC.
Position N 46°02' E 036°48'.

Length 134 m; draft 6.2 m.

Type: Cargo ship. MMSI: 245935000.

Date/timePositionNaut miles runAvg speedWind from/ knotsBaromVisibWave heightAir tempDewpointWater temp
2017-Aug-21 12:48N 46°02' E 036°48'611.8
2017-Aug-21 12:19N 45°57' E 036°47'411.8
2017-Aug-21 11:59N 45°53' E 036°47'1411.7
2017-Aug-21 10:49N 45°39' E 036°45'411.7
2017-Aug-21 10:27N 45°35' E 036°45'511.6
2017-Aug-21 10:00N 45°30' E 036°43'511.0
2017-Aug-21 09:31N 45°25' E 036°41'4 8.4
2017-Aug-21 09:01N 45°21' E 036°38'510.1
2017-Aug-21 08:31N 45°19' E 036°32'5 9.4
2017-Aug-21 08:00N 45°15' E 036°27'4 7.9
2017-Aug-21 07:30N 45°11' E 036°29'0 0.2
2017-Aug-21 05:52N 45°11' E 036°29'0 0.9
2017-Aug-21 05:30N 45°11' E 036°29'5 8.7
2017-Aug-21 04:57N 45°06' E 036°30'1911.3
2017-Aug-21 03:19N 44°48' E 036°32'406 9.6
2017-Aug-19 09:12N 40°49' E 029°05'  
2017-Aug-12 10:52N 40°01' E 026°16'1210.2
2017-Aug-12 09:45N 39°58' E 026°01'910.0
2017-Aug-12 08:52N 39°52' E 025°53'4 7.8
2017-Aug-12 08:22N 39°49' E 025°50'3 9.4
2017-Aug-12 08:00N 39°46' E 025°48'  
Track history (hours):
 
Tides and Currents Weather Stations Pressure Air Temp Water Temp Dewpoint Dewpoint Depression Visibility Wind Speed Wind Dir Waves Ship Positions

Zealand Delilah

Last reported at 2017-Aug-21 12:48 UTC. Time now 2017-Aug-22 13:09 UTC.
Position N 46°02' E 036°48'.

Length 134 m; draft 6.2 m.

Type: Cargo ship. MMSI: 245935000.

Date/timePositionNaut miles runAvg speedWind from/ knotsBaromVisibWave heightAir tempDewpointWater temp
2017-Aug-21 12:48N 46°02' E 036°48'611.8
2017-Aug-21 12:19N 45°57' E 036°47'411.8
2017-Aug-21 11:59N 45°53' E 036°47'1411.7
2017-Aug-21 10:49N 45°39' E 036°45'411.7
2017-Aug-21 10:27N 45°35' E 036°45'511.6
2017-Aug-21 10:00N 45°30' E 036°43'511.0
2017-Aug-21 09:31N 45°25' E 036°41'4 8.4
2017-Aug-21 09:01N 45°21' E 036°38'510.1
2017-Aug-21 08:31N 45°19' E 036°32'5 9.4
2017-Aug-21 08:00N 45°15' E 036°27'4 7.9
2017-Aug-21 07:30N 45°11' E 036°29'0 0.2
2017-Aug-21 05:52N 45°11' E 036°29'0 0.9
2017-Aug-21 05:30N 45°11' E 036°29'5 8.7
2017-Aug-21 04:57N 45°06' E 036°30'1911.3
2017-Aug-21 03:19N 44°48' E 036°32'406 9.6
2017-Aug-19 09:12N 40°49' E 029°05'  
2017-Aug-12 10:52N 40°01' E 026°16'1210.2
2017-Aug-12 09:45N 39°58' E 026°01'910.0
2017-Aug-12 08:52N 39°52' E 025°53'4 7.8
2017-Aug-12 08:22N 39°49' E 025°50'3 9.4
2017-Aug-12 08:00N 39°46' E 025°48'  

Dump ship's entire track history